createdAt,value
2023-02-05T00:01:28.340Z,7.37
2023-02-05T00:03:55.109Z,8.23
2023-02-05T00:06:22.329Z,6.80
2023-02-05T00:08:49.148Z,6.80
2023-02-05T00:11:15.842Z,7.57
2023-02-05T00:13:43.552Z,7.33
2023-02-05T00:16:12.974Z,7.93
2023-02-05T00:18:39.975Z,8.33
2023-02-05T00:21:07.839Z,6.97
2023-02-05T00:23:35.381Z,6.77
2023-02-05T00:26:02.893Z,6.93
2023-02-05T00:28:32.829Z,6.10
2023-02-05T00:31:00.358Z,5.93
2023-02-05T00:33:27.412Z,6.43
2023-02-05T00:35:54.168Z,5.97
2023-02-05T00:38:20.851Z,5.93
2023-02-05T00:40:47.555Z,6.43
2023-02-05T00:43:14.264Z,6.33
2023-02-05T00:45:40.953Z,6.27
2023-02-05T00:48:07.647Z,6.40
2023-02-05T00:50:35.220Z,6.43
2023-02-05T00:53:02.371Z,5.83
2023-02-05T00:55:29.240Z,6.17
2023-02-05T00:57:55.925Z,5.73
2023-02-05T01:00:22.898Z,6.03
2023-02-05T01:02:49.648Z,5.93
2023-02-05T01:05:16.442Z,5.70
2023-02-05T01:07:43.060Z,5.63
2023-02-05T01:10:10.088Z,5.13
2023-02-05T01:12:36.782Z,5.63
2023-02-05T01:15:06.339Z,5.03
2023-02-05T01:17:33.187Z,5.30
2023-02-05T01:19:59.858Z,5.83
2023-02-05T01:22:26.545Z,5.43
2023-02-05T01:24:53.581Z,5.40
2023-02-05T01:27:20.241Z,5.33
2023-02-05T01:29:47.215Z,5.10
2023-02-05T01:32:14.109Z,5.43
2023-02-05T01:34:40.811Z,5.13
2023-02-05T01:37:07.739Z,5.10
2023-02-05T01:39:36.345Z,5.57
2023-02-05T01:42:16.609Z,5.43
2023-02-05T01:44:43.290Z,5.03
2023-02-05T01:47:09.989Z,4.97
2023-02-05T01:49:43.097Z,4.57
2023-02-05T01:52:15.410Z,4.73
2023-02-05T01:54:46.556Z,4.23
2023-02-05T01:57:25.285Z,4.97
2023-02-05T01:59:52.032Z,6.00
2023-02-05T02:02:18.906Z,6.20
2023-02-05T02:04:49.118Z,5.50
2023-02-05T02:07:21.394Z,4.50
2023-02-05T02:09:49.333Z,4.90
2023-02-05T02:12:21.041Z,4.63
2023-02-05T02:14:51.373Z,5.00
2023-02-05T02:17:19.709Z,4.33
2023-02-05T02:20:08.336Z,5.37
2023-02-05T02:22:55.638Z,5.43
2023-02-05T02:25:46.911Z,5.93
2023-02-05T02:28:28.717Z,5.30
2023-02-05T02:31:11.826Z,5.20
2023-02-05T02:33:50.733Z,5.67
2023-02-05T02:36:30.274Z,5.47
2023-02-05T02:39:36.915Z,5.40
2023-02-05T02:42:06.397Z,5.30
2023-02-05T02:44:45.451Z,5.60
2023-02-05T02:47:22.117Z,5.47
2023-02-05T02:50:00.012Z,6.67
2023-02-05T02:52:28.725Z,6.30
2023-02-05T02:55:04.349Z,5.80
2023-02-05T02:57:34.518Z,6.20
2023-02-05T03:00:03.964Z,5.87
2023-02-05T03:02:33.768Z,6.20
2023-02-05T03:05:07.374Z,6.00
2023-02-05T03:07:42.787Z,6.40
2023-02-05T03:10:17.098Z,6.30
2023-02-05T03:12:44.431Z,5.60
2023-02-05T03:15:11.766Z,5.27
2023-02-05T03:17:40.165Z,6.10
2023-02-05T03:20:21.552Z,6.10
2023-02-05T03:22:48.927Z,6.07
2023-02-05T03:25:20.254Z,6.40
2023-02-05T03:27:47.920Z,6.60
2023-02-05T03:30:15.413Z,7.10
2023-02-05T03:33:12.579Z,6.60
2023-02-05T03:35:47.280Z,6.80
2023-02-05T03:38:23.438Z,7.10
2023-02-05T03:41:03.673Z,6.97
2023-02-05T03:43:40.291Z,7.53
2023-02-05T03:46:17.754Z,7.03
2023-02-05T03:49:12.521Z,6.73
2023-02-05T03:52:00.810Z,7.00
2023-02-05T03:54:51.760Z,7.00
2023-02-05T03:57:27.360Z,6.70
2023-02-05T03:59:55.413Z,7.27
2023-02-05T04:02:24.621Z,7.30
2023-02-05T04:04:52.942Z,7.10
2023-02-05T04:07:19.827Z,7.17
2023-02-05T04:09:46.603Z,7.13
2023-02-05T04:12:13.630Z,7.03
2023-02-05T04:14:40.424Z,6.77
2023-02-05T04:17:08.016Z,6.30
2023-02-05T04:19:37.374Z,5.87
2023-02-05T04:22:04.194Z,6.10
2023-02-05T04:24:31.351Z,6.77
2023-02-05T04:26:58.091Z,6.20
2023-02-05T04:29:25.054Z,5.50
2023-02-05T04:31:51.832Z,5.90
2023-02-05T04:34:18.921Z,5.83
2023-02-05T04:36:45.966Z,5.17
2023-02-05T04:39:14.389Z,5.27
2023-02-05T04:41:41.257Z,5.33
2023-02-05T04:44:08.939Z,5.20
2023-02-05T04:46:35.986Z,5.30
2023-02-05T04:49:02.858Z,5.33
2023-02-05T04:51:29.652Z,5.23
2023-02-05T04:53:56.404Z,5.20
2023-02-05T04:56:23.138Z,4.97
2023-02-05T04:58:50.158Z,5.40
2023-02-05T05:01:19.654Z,4.90
2023-02-05T05:03:47.197Z,5.17
2023-02-05T05:06:15.622Z,5.20
2023-02-05T05:08:43.112Z,6.30
2023-02-05T05:11:12.736Z,5.43
2023-02-05T05:13:40.443Z,5.20
2023-02-05T05:16:08.193Z,4.43
2023-02-05T05:18:35.188Z,5.13
2023-02-05T05:21:02.846Z,5.43
2023-02-05T05:23:31.245Z,4.70
2023-02-05T05:25:58.222Z,5.00
2023-02-05T05:28:25.111Z,4.83
2023-02-05T05:30:51.942Z,5.17
2023-02-05T05:33:18.765Z,4.97
2023-02-05T05:35:46.232Z,4.77
2023-02-05T05:38:13.155Z,6.47
2023-02-05T05:40:58.499Z,5.77
2023-02-05T05:43:43.984Z,5.50
2023-02-05T05:46:10.874Z,7.20
2023-02-05T05:48:37.748Z,7.23
2023-02-05T05:51:04.785Z,5.67
2023-02-05T05:53:32.197Z,5.23
2023-02-05T05:55:58.940Z,4.70
2023-02-05T05:58:25.758Z,4.80
2023-02-05T06:00:52.432Z,5.17
2023-02-05T06:03:19.215Z,5.97
2023-02-05T06:05:46.099Z,5.87
2023-02-05T06:08:14.307Z,5.17
2023-02-05T06:10:41.166Z,5.97
2023-02-05T06:13:08.221Z,6.77
2023-02-05T06:15:35.431Z,5.80
2023-02-05T06:18:02.663Z,6.17
2023-02-05T06:20:29.402Z,6.93
2023-02-05T06:22:56.259Z,5.80
2023-02-05T06:25:23.044Z,5.90
2023-02-05T06:27:49.917Z,6.03
2023-02-05T06:30:16.833Z,6.77
2023-02-05T06:32:43.564Z,6.00
2023-02-05T06:35:10.355Z,6.13
2023-02-05T06:37:48.519Z,6.23
2023-02-05T06:40:18.202Z,6.73
2023-02-05T06:42:45.281Z,6.10
2023-02-05T06:45:12.070Z,8.37
2023-02-05T06:47:39.021Z,7.07
2023-02-05T06:50:06.850Z,6.40
2023-02-05T06:52:34.952Z,6.20
2023-02-05T06:55:01.883Z,6.90
2023-02-05T06:57:28.580Z,7.30
2023-02-05T06:59:55.275Z,7.17
2023-02-05T07:02:21.978Z,6.80
2023-02-05T07:04:48.971Z,6.17
2023-02-05T07:07:17.142Z,6.53
2023-02-05T07:09:44.176Z,6.13
2023-02-05T07:12:11.087Z,6.20
2023-02-05T07:14:39.487Z,5.70
2023-02-05T07:17:06.354Z,5.97
2023-02-05T07:19:33.269Z,6.33
2023-02-05T07:22:00.485Z,5.93
2023-02-05T07:24:27.479Z,6.23
2023-02-05T07:26:54.394Z,5.57
2023-02-05T07:29:21.212Z,5.23
2023-02-05T07:31:50.484Z,5.30
2023-02-05T07:34:17.392Z,5.47
2023-02-05T07:36:44.292Z,4.80
2023-02-05T07:39:11.264Z,5.33
2023-02-05T07:41:37.978Z,6.00
2023-02-05T07:44:04.776Z,6.37
2023-02-05T07:46:31.583Z,5.97
2023-02-05T07:48:58.290Z,6.20
2023-02-05T07:51:26.004Z,5.90
2023-02-05T07:53:53.556Z,5.47
2023-02-05T07:56:25.692Z,4.90
2023-02-05T07:58:52.677Z,5.50
2023-02-05T08:01:19.431Z,5.60
2023-02-05T08:03:46.249Z,5.97
2023-02-05T08:06:15.550Z,4.97
2023-02-05T08:08:42.469Z,5.43
2023-02-05T08:11:14.660Z,5.37
2023-02-05T08:13:41.743Z,5.60
2023-02-05T08:16:09.165Z,5.10
2023-02-05T08:18:35.962Z,5.50
2023-02-05T08:21:02.988Z,5.40
2023-02-05T08:23:32.929Z,6.37
2023-02-05T08:26:00.694Z,5.57
2023-02-05T08:28:28.702Z,6.17
2023-02-05T08:30:56.677Z,5.23
2023-02-05T08:33:23.757Z,5.67
2023-02-05T08:35:50.526Z,5.70
2023-02-05T08:38:17.285Z,5.83
2023-02-05T08:40:44.147Z,6.13
2023-02-05T08:43:11.414Z,6.80
2023-02-05T08:45:39.271Z,6.77
2023-02-05T08:48:06.088Z,6.10
2023-02-05T08:50:32.838Z,5.97
2023-02-05T08:52:59.569Z,7.53
2023-02-05T08:55:26.219Z,6.63
2023-02-05T08:57:53.073Z,5.80
2023-02-05T09:00:21.207Z,6.23
2023-02-05T09:02:48.072Z,6.67
2023-02-05T09:05:15.097Z,7.07
2023-02-05T09:07:42.295Z,6.73
2023-02-05T09:10:11.460Z,7.20
2023-02-05T09:12:38.430Z,6.90
2023-02-05T09:15:06.499Z,7.67
2023-02-05T09:17:33.244Z,7.27
2023-02-05T09:20:00.022Z,8.30
2023-02-05T09:22:26.742Z,8.03
2023-02-05T09:24:53.440Z,7.97
2023-02-05T09:27:20.132Z,7.83
2023-02-05T09:29:47.111Z,7.83
2023-02-05T09:32:13.918Z,7.83
2023-02-05T09:34:40.676Z,7.60
2023-02-05T09:37:07.319Z,7.20
2023-02-05T09:40:18.412Z,7.00
2023-02-05T09:42:39.646Z,7.20
2023-02-05T09:45:26.043Z,8.13
2023-02-05T09:48:30.577Z,8.23
2023-02-05T09:50:58.312Z,7.47
2023-02-05T09:53:29.591Z,7.77
2023-02-05T09:56:00.657Z,8.17
2023-02-05T09:58:32.096Z,8.27
2023-02-05T10:01:12.490Z,8.80
2023-02-05T10:03:57.553Z,9.80
2023-02-05T10:06:44.809Z,10.27
2023-02-05T10:09:25.799Z,10.70
2023-02-05T10:12:01.434Z,10.97
2023-02-05T10:14:47.303Z,9.90
2023-02-05T10:17:18.036Z,10.47
2023-02-05T10:19:47.661Z,10.17
2023-02-05T10:22:23.594Z,9.53
2023-02-05T10:25:33.718Z,10.67
2023-02-05T10:28:19.514Z,11.27
2023-02-05T10:30:50.607Z,12.47
2023-02-05T10:33:23.945Z,11.80
2023-02-05T10:36:01.184Z,11.30
2023-02-05T10:38:32.896Z,12.93
2023-02-05T10:41:12.067Z,12.90
2023-02-05T10:43:47.582Z,12.30
2023-02-05T10:46:16.598Z,12.47
2023-02-05T10:49:10.987Z,13.67
2023-02-05T10:51:42.713Z,12.40
2023-02-05T10:54:27.821Z,13.73
2023-02-05T10:56:55.824Z,13.20
2023-02-05T10:59:31.556Z,12.83
2023-02-05T11:02:03.514Z,14.03
2023-02-05T11:04:49.446Z,14.87
2023-02-05T11:07:35.605Z,14.67
2023-02-05T11:10:14.683Z,14.53
2023-02-05T11:12:45.130Z,14.07
2023-02-05T11:15:25.375Z,14.37
2023-02-05T11:18:05.013Z,14.20
2023-02-05T11:20:38.822Z,15.30
2023-02-05T11:23:20.273Z,15.33
2023-02-05T11:25:59.247Z,16.30
2023-02-05T11:28:31.367Z,15.47
2023-02-05T11:30:58.879Z,18.30
2023-02-05T11:33:28.928Z,17.37
2023-02-05T11:36:03.172Z,17.17
2023-02-05T11:38:51.769Z,15.63
2023-02-05T11:41:32.304Z,17.10
2023-02-05T11:44:00.965Z,15.30
2023-02-05T11:46:32.159Z,15.87
2023-02-05T11:49:03.407Z,17.17
2023-02-05T11:51:39.425Z,14.07
2023-02-05T11:54:15.815Z,15.13
2023-02-05T11:56:42.609Z,15.47
2023-02-05T11:59:22.198Z,16.33
2023-02-05T12:01:49.861Z,15.43
2023-02-05T12:04:21.580Z,15.07
2023-02-05T12:06:57.562Z,14.40
2023-02-05T12:09:27.413Z,15.00
2023-02-05T12:12:03.456Z,15.33
2023-02-05T12:14:38.062Z,15.87
2023-02-05T12:17:41.515Z,15.77
2023-02-05T12:20:38.926Z,15.00
2023-02-05T12:23:30.220Z,14.33
2023-02-05T12:26:21.146Z,14.90
2023-02-05T12:29:16.196Z,14.20
2023-02-05T12:31:51.773Z,14.43
2023-02-05T12:34:29.365Z,15.20
2023-02-05T12:37:27.615Z,16.23
2023-02-05T12:40:07.378Z,18.27
2023-02-05T12:42:43.889Z,15.27
2023-02-05T12:45:39.585Z,15.57
2023-02-05T12:48:34.996Z,15.37
2023-02-05T12:51:08.591Z,16.37
2023-02-05T12:53:57.271Z,16.07
2023-02-05T12:56:39.033Z,15.53
2023-02-05T12:59:15.057Z,15.77
2023-02-05T13:01:56.184Z,15.57
2023-02-05T13:04:32.695Z,16.07
2023-02-05T13:07:26.736Z,14.77
2023-02-05T13:10:22.030Z,15.40
2023-02-05T13:13:05.959Z,15.43
2023-02-05T13:15:44.681Z,14.77
2023-02-05T13:18:25.860Z,16.27
2023-02-05T13:21:19.275Z,14.40
2023-02-05T13:24:06.217Z,14.60
2023-02-05T13:26:58.722Z,14.37
2023-02-05T13:29:32.263Z,14.53
2023-02-05T13:32:15.383Z,14.10
2023-02-05T13:34:43.437Z,13.33
2023-02-05T13:37:37.743Z,14.00
2023-02-05T13:40:35.120Z,14.40
2023-02-05T13:43:37.298Z,13.43
2023-02-05T13:46:36.532Z,13.30
2023-02-05T13:49:13.179Z,15.80
2023-02-05T13:52:20.871Z,14.93
2023-02-05T13:54:50.653Z,14.73
2023-02-05T13:58:05.106Z,14.47
2023-02-05T14:00:33.287Z,15.73
2023-02-05T14:03:05.617Z,16.27
2023-02-05T14:05:36.033Z,16.03
2023-02-05T14:08:04.069Z,16.37
2023-02-05T14:10:42.093Z,15.23
2023-02-05T14:13:32.547Z,15.13
2023-02-05T14:16:25.023Z,14.80
2023-02-05T14:19:00.857Z,15.00
2023-02-05T14:21:30.771Z,14.50
2023-02-05T14:24:43.984Z,15.87
2023-02-05T14:27:33.925Z,14.70
2023-02-05T14:30:29.682Z,15.50
2023-02-05T14:33:01.924Z,14.43
2023-02-05T14:35:38.780Z,15.07
2023-02-05T14:38:23.883Z,14.63
2023-02-05T14:41:35.965Z,14.17
2023-02-05T14:44:05.776Z,13.87
2023-02-05T14:46:37.702Z,15.67
2023-02-05T14:49:07.905Z,14.63
2023-02-05T14:51:43.314Z,15.83
2023-02-05T14:54:22.937Z,14.50
2023-02-05T14:56:54.016Z,15.57
2023-02-05T14:59:30.663Z,14.37
2023-02-05T15:01:59.763Z,15.47
2023-02-05T15:04:50.336Z,15.80
2023-02-05T15:07:24.364Z,15.77
2023-02-05T15:10:06.145Z,14.47
2023-02-05T15:12:39.036Z,15.77
2023-02-05T15:15:33.218Z,14.73
2023-02-05T15:18:15.450Z,21.27
2023-02-05T15:20:47.608Z,18.27
2023-02-05T15:23:19.519Z,22.73
2023-02-05T15:25:54.501Z,19.67
2023-02-05T15:28:58.980Z,17.60
2023-02-05T15:31:33.894Z,17.60
2023-02-05T15:34:11.534Z,16.20
2023-02-05T15:36:45.925Z,15.70
2023-02-05T15:39:27.995Z,14.43
2023-02-05T15:41:57.726Z,15.90
2023-02-05T15:44:33.448Z,18.63
2023-02-05T15:47:04.140Z,17.53
2023-02-05T15:49:43.092Z,16.97
2023-02-05T15:52:21.372Z,18.10
2023-02-05T15:54:49.459Z,16.20
2023-02-05T15:57:28.769Z,17.03
2023-02-05T15:59:56.944Z,16.97
2023-02-05T16:02:27.095Z,15.47
2023-02-05T16:05:04.038Z,15.57
2023-02-05T16:07:39.989Z,14.33
2023-02-05T16:10:20.613Z,14.60
2023-02-05T16:13:05.135Z,14.90
2023-02-05T16:15:42.997Z,15.33
2023-02-05T16:18:20.269Z,15.83
2023-02-05T16:20:53.106Z,15.70
2023-02-05T16:23:36.874Z,15.90
2023-02-05T16:26:10.978Z,14.43
2023-02-05T16:28:45.521Z,14.87
2023-02-05T16:31:21.553Z,15.73
2023-02-05T16:33:52.319Z,15.20
2023-02-05T16:36:23.686Z,17.23
2023-02-05T16:38:52.989Z,20.60
2023-02-05T16:41:25.579Z,20.67
2023-02-05T16:43:57.156Z,15.30
2023-02-05T16:46:36.911Z,15.90
2023-02-05T16:49:23.838Z,15.77
2023-02-05T16:51:50.688Z,14.77
2023-02-05T16:54:20.413Z,14.13
2023-02-05T16:57:08.285Z,14.27
2023-02-05T17:00:08.498Z,14.50
2023-02-05T17:02:41.573Z,16.13
2023-02-05T17:05:21.791Z,18.13
2023-02-05T17:08:01.354Z,21.73
2023-02-05T17:10:29.165Z,18.30
2023-02-05T17:13:01.702Z,16.90
2023-02-05T17:15:34.637Z,19.70
2023-02-05T17:18:17.251Z,19.03
2023-02-05T17:20:45.560Z,17.30
2023-02-05T17:23:16.875Z,15.97
2023-02-05T17:25:51.644Z,14.90
2023-02-05T17:28:27.035Z,18.13
2023-02-05T17:30:57.638Z,14.63
2023-02-05T17:33:27.251Z,14.53
2023-02-05T17:35:54.482Z,13.33
2023-02-05T17:38:23.542Z,12.90
2023-02-05T17:40:50.470Z,15.53
2023-02-05T17:43:17.137Z,13.90
2023-02-05T17:45:44.427Z,13.60
2023-02-05T17:48:11.570Z,13.47
2023-02-05T17:50:39.059Z,12.73
2023-02-05T17:53:06.061Z,13.97
2023-02-05T17:55:33.284Z,12.17
2023-02-05T17:58:00.183Z,12.17
2023-02-05T18:00:28.921Z,12.37
2023-02-05T18:02:55.622Z,13.70
2023-02-05T18:05:22.829Z,16.73
2023-02-05T18:07:53.056Z,19.60
2023-02-05T18:10:35.337Z,22.80
2023-02-05T18:13:03.027Z,19.97
2023-02-05T18:15:32.281Z,18.23
2023-02-05T18:17:58.924Z,16.63
2023-02-05T18:20:45.882Z,16.53
2023-02-05T18:23:18.677Z,16.13
2023-02-05T18:25:51.173Z,14.30
2023-02-05T18:31:09.790Z,12.20
2023-02-05T18:33:37.260Z,12.07
2023-02-05T18:36:09.815Z,11.70
2023-02-05T18:38:37.716Z,11.63
2023-02-05T18:41:15.753Z,11.33
2023-02-05T18:43:43.126Z,11.13
2023-02-05T18:46:12.989Z,10.27
2023-02-05T18:48:43.803Z,10.73
2023-02-05T18:51:14.173Z,9.50
2023-02-05T18:53:43.031Z,9.73
2023-02-05T18:56:16.265Z,9.07
2023-02-05T18:58:44.783Z,9.63
2023-02-05T19:01:14.295Z,8.80
2023-02-05T19:03:42.144Z,8.17
2023-02-05T19:06:09.881Z,8.30
2023-02-05T19:08:37.486Z,9.63
2023-02-05T19:11:12.873Z,8.73
2023-02-05T19:13:39.645Z,8.50
2023-02-05T19:16:12.878Z,9.27
2023-02-05T19:18:44.745Z,9.87
2023-02-05T19:21:18.563Z,9.03
2023-02-05T19:23:49.241Z,9.23
2023-02-05T19:26:18.067Z,10.33
2023-02-05T19:28:46.924Z,9.93
2023-02-05T19:31:15.087Z,11.13
2023-02-05T19:33:42.183Z,10.37
2023-02-05T19:36:10.707Z,11.00
2023-02-05T19:38:38.780Z,10.93
2023-02-05T19:41:12.487Z,12.10
2023-02-05T19:43:40.775Z,11.47
2023-02-05T19:46:09.037Z,11.10
2023-02-05T19:48:35.853Z,11.83
2023-02-05T19:51:07.397Z,10.90
2023-02-05T19:53:35.604Z,11.23
2023-02-05T19:56:08.403Z,11.13
2023-02-05T19:58:37.197Z,11.27
2023-02-05T20:01:14.424Z,11.30
2023-02-05T20:03:42.212Z,13.10
2023-02-05T20:06:09.555Z,12.63
2023-02-05T20:08:36.248Z,11.67
2023-02-05T20:11:03.825Z,12.33
2023-02-05T20:13:33.154Z,11.80
2023-02-05T20:16:05.001Z,12.30
2023-02-05T20:18:31.977Z,12.50
2023-02-05T20:20:58.911Z,12.67
2023-02-05T20:23:26.519Z,12.10
2023-02-05T20:25:57.911Z,12.50
2023-02-05T20:28:27.983Z,12.87
2023-02-05T20:31:13.403Z,11.73
2023-02-05T20:33:40.194Z,12.53
2023-02-05T20:36:09.119Z,11.90
2023-02-05T20:38:35.982Z,12.80
2023-02-05T20:41:14.497Z,12.40
2023-02-05T20:43:41.925Z,12.20
2023-02-05T20:46:10.690Z,11.93
2023-02-05T20:48:38.629Z,12.10
2023-02-05T20:51:12.915Z,11.63
2023-02-05T20:53:40.546Z,11.13
2023-02-05T20:56:10.496Z,11.67
2023-02-05T20:58:37.333Z,11.67
2023-02-05T21:01:31.742Z,11.50
2023-02-05T21:04:02.151Z,10.73
2023-02-05T21:06:31.760Z,11.83
2023-02-05T21:08:58.645Z,10.70
2023-02-05T21:11:26.938Z,11.40
2023-02-05T21:13:54.154Z,10.77
2023-02-05T21:16:24.200Z,11.30
2023-02-05T21:18:52.971Z,11.03
2023-02-05T21:21:25.763Z,11.73
2023-02-05T21:24:01.295Z,11.43
2023-02-05T21:26:30.948Z,11.70
2023-02-05T21:29:00.163Z,12.30
2023-02-05T21:31:35.376Z,12.43
2023-02-05T21:34:03.399Z,13.00
2023-02-05T21:36:30.828Z,12.80
2023-02-05T21:38:58.164Z,12.07
2023-02-05T21:41:24.967Z,12.83
2023-02-05T21:43:54.142Z,12.47
2023-02-05T21:46:21.913Z,12.40
2023-02-05T21:48:50.755Z,11.57
2023-02-05T21:51:19.788Z,11.43
2023-02-05T21:53:46.601Z,11.47
2023-02-05T21:56:16.556Z,11.67
2023-02-05T21:58:43.827Z,11.40
2023-02-05T22:01:25.957Z,11.50
2023-02-05T22:04:04.776Z,11.67
2023-02-05T22:06:33.937Z,11.43
2023-02-05T22:09:03.827Z,10.07
2023-02-05T22:11:31.192Z,10.50
2023-02-05T22:13:57.991Z,10.03
2023-02-05T22:16:30.334Z,11.50
2023-02-05T22:18:58.480Z,10.67
2023-02-05T22:21:27.703Z,10.63
2023-02-05T22:23:56.692Z,11.13
2023-02-05T22:26:26.623Z,10.90
2023-02-05T22:28:53.627Z,10.63
2023-02-05T22:31:21.581Z,10.53
2023-02-05T22:33:49.927Z,10.50
2023-02-05T22:36:22.398Z,11.30
2023-02-05T22:38:51.037Z,11.13
2023-02-05T22:41:22.594Z,11.37
2023-02-05T22:43:50.042Z,11.00
2023-02-05T22:46:20.457Z,10.87
2023-02-05T22:48:49.151Z,11.23
2023-02-05T22:51:21.722Z,10.60
2023-02-05T22:53:48.972Z,10.37
2023-02-05T22:56:16.670Z,10.90
2023-02-05T22:58:45.356Z,10.73
2023-02-05T23:01:15.661Z,11.37
2023-02-05T23:03:43.466Z,11.73
2023-02-05T23:06:14.275Z,12.27
2023-02-05T23:08:41.591Z,12.23
2023-02-05T23:11:15.539Z,11.90
2023-02-05T23:13:42.608Z,10.87
2023-02-05T23:16:19.064Z,11.43
2023-02-05T23:18:47.615Z,11.93
2023-02-05T23:21:23.093Z,11.10
2023-02-05T23:23:50.307Z,11.07
2023-02-05T23:26:39.849Z,11.23
2023-02-05T23:29:06.956Z,11.20
2023-02-05T23:31:33.973Z,11.83
2023-02-05T23:34:01.320Z,11.07
2023-02-05T23:36:28.434Z,10.63
2023-02-05T23:38:55.171Z,10.43
2023-02-05T23:41:37.484Z,10.17
2023-02-05T23:44:15.529Z,9.60
2023-02-05T23:46:43.651Z,10.23
2023-02-05T23:49:11.314Z,9.83
2023-02-05T23:51:38.166Z,9.67
2023-02-05T23:54:05.934Z,8.60
2023-02-05T23:56:32.979Z,9.53
2023-02-05T23:59:00.139Z,9.00
